Time;durP1;ratioP1;P1;durP2;ratioP2;P2;SDS_P1;SDS_P2;PMS_P1;PMS_P2;Temp;Humidity;BMP_temperature;BMP_pressure;BME280_temperature;BME280_humidity;BME280_pressure;Samples;Min_cycle;Max_cycle;Signal;HPM_P1;HPM_P2
2021/10/23 00:02:22;;;;;;;1.70;0.65;;;;;;;;;;5038444;28;20464;-42
2021/10/23 00:04:47;;;;;;;1.92;0.60;;;;;;;;;;5037851;28;20029;-44
2021/10/23 00:07:12;;;;;;;4.70;1.50;;;;;;;;;;5037391;28;20087;-44
2021/10/23 00:09:38;;;;;;;3.10;1.02;;;;;;;;;;5041788;28;20059;-47
2021/10/23 00:12:04;;;;;;;2.95;0.98;;;;;;;;;;5037712;28;20113;-44
2021/10/23 00:14:29;;;;;;;2.53;0.70;;;;;;;;;;5039457;28;20087;-46
2021/10/23 00:16:54;;;;;;;1.77;0.88;;;;;;;;;;5038883;28;20388;-45
2021/10/23 00:19:20;;;;;;;6.03;0.75;;;;;;;;;;5037839;28;20109;-46
2021/10/23 00:21:45;;;;;;;4.38;0.60;;;;;;;;;;5038746;28;20597;-50
2021/10/23 00:24:10;;;;;;;3.72;0.65;;;;;;;;;;5038516;28;20029;-43
2021/10/23 00:26:36;;;;;;;10.63;0.98;;;;;;;;;;5037284;28;20021;-46
2021/10/23 00:29:01;;;;;;;2.95;0.30;;;;;;;;;;5038293;28;20039;-48
2021/10/23 00:31:26;;;;;;;4.18;1.13;;;;;;;;;;5038631;28;20026;-45
2021/10/23 00:33:52;;;;;;;5.80;1.15;;;;;;;;;;5038331;28;20030;-47
2021/10/23 00:36:17;;;;;;;4.78;1.15;;;;;;;;;;5040818;28;20029;-43
2021/10/23 00:38:42;;;;;;;0.77;0.17;;;;;;;;;;5036338;28;20033;-42
2021/10/23 00:41:07;;;;;;;0.50;0.22;;;;;;;;;;5036178;28;20106;-48
2021/10/23 00:43:35;;;;;;;15.38;1.65;;;;;;;;;;5039007;28;20591;-45
2021/10/23 00:46:00;;;;;;;1.98;0.38;;;;;;;;;;5032730;28;20065;-50
2021/10/23 00:48:26;;;;;;;1.30;0.90;;;;;;;;;;5040318;28;20017;-46
2021/10/23 00:50:51;;;;;;;0.00;0.00;;;;;;;;;;5034105;28;20469;-47
2021/10/23 00:53:19;;;;;;;1.30;0.47;;;;;;;;;;5037553;28;20465;-46
2021/10/23 00:55:44;;;;;;;16.40;1.25;;;;;;;;;;5038647;28;20017;-50
2021/10/23 00:58:10;;;;;;;2.45;0.40;;;;;;;;;;5040593;28;20017;-48
2021/10/23 01:00:35;;;;;;;1.77;0.55;;;;;;;;;;5036761;28;20468;-46
2021/10/23 01:03:00;;;;;;;2.17;1.00;;;;;;;;;;5037258;28;20052;-46
2021/10/23 01:05:26;;;;;;;2.95;0.40;;;;;;;;;;5037332;28;20112;-44
2021/10/23 01:07:51;;;;;;;0.52;0.32;;;;;;;;;;5039214;28;20436;-45
2021/10/23 01:10:17;;;;;;;2.65;1.25;;;;;;;;;;5039372;28;20017;-42
2021/10/23 01:12:43;;;;;;;11.27;1.45;;;;;;;;;;5038529;28;20021;-43
2021/10/23 01:15:16;;;;;;;5.88;1.17;;;;;;;;;;5034328;28;20033;-44
2021/10/23 01:17:41;;;;;;;1.90;0.60;;;;;;;;;;5035894;28;20704;-42
2021/10/23 01:20:07;;;;;;;2.10;1.02;;;;;;;;;;5039851;28;20109;-42
2021/10/23 01:22:32;;;;;;;1.85;0.95;;;;;;;;;;5037132;28;20029;-45
2021/10/23 01:24:58;;;;;;;1.33;0.38;;;;;;;;;;5039799;28;20024;-43
2021/10/23 01:27:23;;;;;;;3.42;0.30;;;;;;;;;;5037027;28;20142;-43
2021/10/23 01:29:48;;;;;;;2.05;0.98;;;;;;;;;;5037738;28;20017;-45
2021/10/23 01:32:14;;;;;;;9.60;0.93;;;;;;;;;;5035711;28;20164;-45
2021/10/23 01:34:39;;;;;;;3.63;1.70;;;;;;;;;;5033349;28;20155;-45
2021/10/23 01:37:05;;;;;;;0.95;0.65;;;;;;;;;;5036696;28;20040;-44
2021/10/23 01:39:32;;;;;;;1.08;0.15;;;;;;;;;;5038758;28;20021;-45
2021/10/23 01:41:57;;;;;;;2.10;0.40;;;;;;;;;;5034885;28;20083;-43
2021/10/23 01:44:28;;;;;;;7.05;1.40;;;;;;;;;;5035570;28;20085;-43
2021/10/23 01:46:53;;;;;;;12.77;0.85;;;;;;;;;;5037705;28;20044;-46
2021/10/23 01:49:18;;;;;;;2.25;0.70;;;;;;;;;;5035565;28;20385;-43
2021/10/23 01:51:44;;;;;;;3.75;1.15;;;;;;;;;;5070147;28;20143;-46
2021/10/23 01:54:10;;;;;;;2.47;0.65;;;;;;;;;;5036053;28;20071;-44
2021/10/23 01:56:35;;;;;;;4.10;0.95;;;;;;;;;;5037987;28;20024;-45
2021/10/23 01:59:01;;;;;;;5.22;0.50;;;;;;;;;;5032570;28;20440;-46
2021/10/23 02:01:26;;;;;;;4.22;1.85;;;;;;;;;;5032875;28;20029;-47
2021/10/23 02:03:52;;;;;;;3.88;1.50;;;;;;;;;;5036011;28;20032;-46
2021/10/23 02:06:18;;;;;;;2.50;1.48;;;;;;;;;;5036299;28;20029;-46
2021/10/23 02:08:43;;;;;;;5.28;1.10;;;;;;;;;;5033987;28;20021;-43
2021/10/23 02:11:08;;;;;;;2.78;0.80;;;;;;;;;;5035222;28;20639;-50
2021/10/23 02:13:34;;;;;;;5.78;0.80;;;;;;;;;;5038141;28;20021;-47
2021/10/23 02:15:59;;;;;;;1.65;0.63;;;;;;;;;;5035305;28;20026;-47
2021/10/23 02:18:26;;;;;;;0.77;0.40;;;;;;;;;;5038904;28;20025;-44
2021/10/23 02:20:51;;;;;;;10.25;1.85;;;;;;;;;;5037269;28;20056;-47
2021/10/23 02:23:17;;;;;;;3.78;1.02;;;;;;;;;;5033254;28;20148;-45
2021/10/23 02:25:42;;;;;;;1.90;0.60;;;;;;;;;;5035639;28;20053;-44
2021/10/23 02:28:07;;;;;;;0.98;0.63;;;;;;;;;;5037827;28;20025;-44
2021/10/23 02:30:33;;;;;;;4.47;1.65;;;;;;;;;;5037894;28;20493;-43
2021/10/23 02:32:58;;;;;;;3.97;1.45;;;;;;;;;;5041882;28;20008;-44
2021/10/23 02:35:23;;;;;;;2.80;1.05;;;;;;;;;;5035129;28;20017;-44
2021/10/23 02:37:48;;;;;;;4.70;0.90;;;;;;;;;;5038447;28;20021;-44
2021/10/23 02:40:14;;;;;;;4.88;0.95;;;;;;;;;;5036221;28;20107;-44
2021/10/23 02:42:39;;;;;;;4.70;1.10;;;;;;;;;;5034576;28;20017;-41
2021/10/23 02:45:06;;;;;;;9.27;1.30;;;;;;;;;;5034479;28;20460;-44
2021/10/23 02:47:31;;;;;;;3.45;1.48;;;;;;;;;;5033686;28;20547;-46
2021/10/23 02:49:57;;;;;;;2.05;1.05;;;;;;;;;;5032494;28;20021;-45
2021/10/23 02:52:22;;;;;;;1.90;0.82;;;;;;;;;;5039085;28;20071;-45
2021/10/23 02:54:47;;;;;;;2.65;0.55;;;;;;;;;;5034897;28;20021;-44
2021/10/23 02:57:12;;;;;;;4.55;1.08;;;;;;;;;;5036517;28;20028;-43
2021/10/23 02:59:40;;;;;;;6.38;1.50;;;;;;;;;;5031792;28;20033;-45
2021/10/23 03:02:05;;;;;;;3.00;0.77;;;;;;;;;;5034147;28;20029;-46
2021/10/23 03:04:31;;;;;;;3.17;1.58;;;;;;;;;;5035246;28;20028;-47
2021/10/23 03:06:56;;;;;;;1.20;1.00;;;;;;;;;;5038950;28;20494;-44
2021/10/23 03:09:22;;;;;;;3.13;0.50;;;;;;;;;;5037503;28;20445;-43
2021/10/23 03:11:47;;;;;;;4.50;1.55;;;;;;;;;;5034247;28;20036;-43
2021/10/23 03:14:13;;;;;;;8.43;1.50;;;;;;;;;;5037802;28;20025;-43
2021/10/23 03:16:38;;;;;;;0.68;0.40;;;;;;;;;;5032901;28;20035;-42
2021/10/23 03:19:03;;;;;;;2.40;1.30;;;;;;;;;;5036782;28;20025;-46
2021/10/23 03:21:29;;;;;;;8.93;1.13;;;;;;;;;;5036491;28;20030;-43
2021/10/23 03:23:54;;;;;;;1.20;0.43;;;;;;;;;;5032377;28;20481;-49
2021/10/23 03:26:19;;;;;;;5.28;1.92;;;;;;;;;;5034445;28;20026;-48
2021/10/23 03:28:45;;;;;;;1.58;0.88;;;;;;;;;;5035619;28;20107;-47
2021/10/23 03:31:10;;;;;;;6.78;3.85;;;;;;;;;;5036123;28;20358;-51
2021/10/23 03:33:35;;;;;;;1.25;1.10;;;;;;;;;;5037167;28;20017;-48
2021/10/23 03:36:01;;;;;;;1.98;1.10;;;;;;;;;;5033996;28;20009;-44
2021/10/23 03:38:26;;;;;;;1.45;0.70;;;;;;;;;;5038452;28;20078;-45
2021/10/23 03:40:51;;;;;;;10.13;1.30;;;;;;;;;;5036838;28;20055;-44
2021/10/23 03:43:17;;;;;;;5.57;2.10;;;;;;;;;;5036289;28;20358;-43
2021/10/23 03:45:42;;;;;;;4.30;1.55;;;;;;;;;;5037650;28;20634;-43
2021/10/23 03:48:07;;;;;;;3.97;1.60;;;;;;;;;;5037692;28;20065;-46
2021/10/23 03:50:33;;;;;;;7.38;0.88;;;;;;;;;;5036283;28;20112;-45
2021/10/23 03:52:59;;;;;;;1.65;0.77;;;;;;;;;;5036615;28;20020;-46
2021/10/23 03:55:24;;;;;;;4.20;2.15;;;;;;;;;;5032137;28;20080;-46
2021/10/23 03:57:49;;;;;;;6.20;1.02;;;;;;;;;;5035331;28;20061;-46
2021/10/23 04:00:15;;;;;;;6.97;1.58;;;;;;;;;;5036104;28;20017;-46
2021/10/23 04:02:40;;;;;;;9.82;2.60;;;;;;;;;;5042975;28;20030;-46
2021/10/23 04:05:06;;;;;;;2.83;0.80;;;;;;;;;;5035926;28;20033;-45
2021/10/23 04:07:31;;;;;;;3.15;0.63;;;;;;;;;;5033924;28;20037;-45
2021/10/23 04:09:58;;;;;;;3.35;0.80;;;;;;;;;;5038972;28;20128;-45
2021/10/23 04:12:23;;;;;;;6.38;1.25;;;;;;;;;;5041013;28;20016;-46
2021/10/23 04:14:48;;;;;;;5.28;1.42;;;;;;;;;;5039613;28;20075;-43
2021/10/23 04:17:14;;;;;;;2.78;0.95;;;;;;;;;;5036096;28;20519;-43
2021/10/23 04:19:39;;;;;;;5.90;1.75;;;;;;;;;;5038272;28;20086;-47
2021/10/23 04:22:05;;;;;;;4.45;1.23;;;;;;;;;;5039147;28;20032;-43
2021/10/23 04:24:30;;;;;;;5.90;1.30;;;;;;;;;;5042583;28;20021;-47
2021/10/23 04:26:56;;;;;;;4.15;1.70;;;;;;;;;;5039058;28;20017;-44
2021/10/23 04:29:21;;;;;;;8.85;2.03;;;;;;;;;;5035668;28;20392;-43
2021/10/23 04:31:47;;;;;;;3.55;1.13;;;;;;;;;;5037626;28;20056;-44
2021/10/23 04:34:12;;;;;;;7.63;1.58;;;;;;;;;;5039616;28;20025;-43
2021/10/23 04:36:38;;;;;;;3.50;1.10;;;;;;;;;;5042770;28;20029;-45
2021/10/23 04:39:03;;;;;;;10.75;2.13;;;;;;;;;;5041544;28;20021;-44
2021/10/23 04:41:28;;;;;;;3.67;1.35;;;;;;;;;;5036842;28;20060;-46
2021/10/23 04:43:54;;;;;;;2.80;1.15;;;;;;;;;;5039406;28;20606;-46
2021/10/23 04:46:19;;;;;;;4.75;1.33;;;;;;;;;;5036904;28;20642;-47
2021/10/23 04:48:44;;;;;;;2.17;0.65;;;;;;;;;;5037690;28;20018;-50
2021/10/23 04:51:10;;;;;;;2.70;1.25;;;;;;;;;;5037395;28;20024;-46
2021/10/23 04:53:35;;;;;;;7.47;1.63;;;;;;;;;;5040450;28;20027;-44
2021/10/23 04:56:00;;;;;;;6.63;1.27;;;;;;;;;;5033776;28;20045;-47
2021/10/23 04:58:26;;;;;;;3.78;1.63;;;;;;;;;;5037316;28;20026;-48
2021/10/23 05:00:51;;;;;;;1.90;0.60;;;;;;;;;;5040915;28;20400;-46
2021/10/23 05:03:16;;;;;;;9.10;1.10;;;;;;;;;;5039955;28;20535;-44
2021/10/23 05:05:42;;;;;;;5.40;1.50;;;;;;;;;;5038297;28;20516;-45
2021/10/23 05:08:07;;;;;;;4.07;1.38;;;;;;;;;;5039313;28;20550;-45
2021/10/23 05:10:32;;;;;;;3.88;0.68;;;;;;;;;;5034339;28;20022;-43
2021/10/23 05:12:57;;;;;;;4.55;1.08;;;;;;;;;;5036408;28;20109;-46
2021/10/23 05:15:24;;;;;;;3.55;1.17;;;;;;;;;;5034995;28;20401;-45
2021/10/23 05:17:49;;;;;;;2.05;0.57;;;;;;;;;;5030852;28;20101;-44
2021/10/23 05:20:14;;;;;;;3.88;1.52;;;;;;;;;;5044167;28;20707;-44
2021/10/23 05:22:40;;;;;;;6.28;0.90;;;;;;;;;;5034283;28;20033;-44
2021/10/23 05:25:05;;;;;;;4.72;0.80;;;;;;;;;;5036818;28;20544;-44
2021/10/23 05:27:31;;;;;;;2.60;0.98;;;;;;;;;;5037519;28;20026;-46
2021/10/23 05:29:57;;;;;;;5.38;1.80;;;;;;;;;;5035864;28;20028;-49
2021/10/23 05:32:22;;;;;;;5.43;2.30;;;;;;;;;;5037867;28;20010;-44
2021/10/23 05:34:47;;;;;;;7.60;1.75;;;;;;;;;;5036149;28;20104;-45
2021/10/23 05:37:13;;;;;;;3.72;1.02;;;;;;;;;;5035080;28;20033;-45
2021/10/23 05:39:38;;;;;;;7.70;1.58;;;;;;;;;;5041684;28;20017;-45
2021/10/23 05:42:04;;;;;;;11.65;2.78;;;;;;;;;;5040372;28;20084;-44
2021/10/23 05:44:29;;;;;;;3.80;1.50;;;;;;;;;;5039121;28;20037;-46
2021/10/23 05:46:54;;;;;;;3.60;1.88;;;;;;;;;;5036036;28;20026;-49
2021/10/23 05:49:20;;;;;;;2.22;0.80;;;;;;;;;;5037006;28;20599;-45
2021/10/23 05:51:46;;;;;;;2.45;1.02;;;;;;;;;;5039132;28;20389;-45
2021/10/23 05:54:12;;;;;;;3.85;1.55;;;;;;;;;;5040266;28;20040;-44
2021/10/23 05:56:37;;;;;;;1.48;0.70;;;;;;;;;;5034894;28;20017;-44
2021/10/23 05:59:12;;;;;;;10.32;2.05;;;;;;;;;;5038956;28;20017;-43
2021/10/23 06:01:38;;;;;;;2.53;0.93;;;;;;;;;;5036907;28;20057;-46
2021/10/23 06:04:04;;;;;;;25.20;2.42;;;;;;;;;;5035080;28;20029;-47
2021/10/23 06:06:29;;;;;;;9.25;1.90;;;;;;;;;;5034047;28;20013;-51
2021/10/23 06:08:54;;;;;;;14.57;2.22;;;;;;;;;;5035503;28;20447;-45
2021/10/23 06:11:20;;;;;;;7.25;2.17;;;;;;;;;;5036104;28;20021;-43
2021/10/23 06:13:45;;;;;;;5.88;1.92;;;;;;;;;;5038737;28;20091;-44
2021/10/23 06:16:10;;;;;;;6.05;1.30;;;;;;;;;;5037175;28;20028;-43
2021/10/23 06:18:36;;;;;;;5.45;1.33;;;;;;;;;;5034721;28;20492;-43
2021/10/23 06:21:01;;;;;;;10.82;2.25;;;;;;;;;;5035271;28;20020;-43
2021/10/23 06:23:30;;;;;;;7.75;2.45;;;;;;;;;;5037422;28;20025;-45
2021/10/23 06:25:56;;;;;;;4.38;1.88;;;;;;;;;;5035721;28;20480;-42
2021/10/23 06:28:22;;;;;;;5.85;1.42;;;;;;;;;;5037007;28;20155;-53
2021/10/23 06:30:47;;;;;;;4.40;1.42;;;;;;;;;;5035527;28;20735;-46
2021/10/23 06:33:12;;;;;;;11.68;3.35;;;;;;;;;;5038242;28;20017;-50
2021/10/23 06:35:37;;;;;;;4.30;1.73;;;;;;;;;;5038787;28;20034;-52
2021/10/23 06:38:03;;;;;;;6.97;1.75;;;;;;;;;;5038409;28;20036;-52
2021/10/23 06:40:29;;;;;;;4.03;2.05;;;;;;;;;;5036884;28;20021;-48
2021/10/23 06:42:54;;;;;;;5.95;1.90;;;;;;;;;;5038958;28;20742;-54
2021/10/23 06:45:19;;;;;;;23.05;11.60;;;;;;;;;;5034932;28;20660;-50
2021/10/23 06:47:45;;;;;;;6.85;1.48;;;;;;;;;;5033317;28;20088;-51
2021/10/23 06:50:11;;;;;;;11.23;2.80;;;;;;;;;;5037556;28;20021;-52
2021/10/23 06:52:37;;;;;;;7.07;2.10;;;;;;;;;;5036150;28;20048;-51
2021/10/23 06:55:02;;;;;;;6.57;2.47;;;;;;;;;;5034788;28;20048;-51
2021/10/23 06:57:28;;;;;;;5.40;1.77;;;;;;;;;;5034889;28;20099;-52
2021/10/23 06:59:53;;;;;;;3.92;1.83;;;;;;;;;;5032910;28;20107;-51
2021/10/23 07:02:18;;;;;;;8.48;2.80;;;;;;;;;;5034632;28;20451;-50
2021/10/23 07:04:43;;;;;;;3.20;1.40;;;;;;;;;;5034879;28;20021;-52
2021/10/23 07:07:09;;;;;;;5.35;3.03;;;;;;;;;;5038538;28;20040;-49
2021/10/23 07:09:34;;;;;;;10.48;3.25;;;;;;;;;;5035476;28;20104;-46
2021/10/23 07:12:00;;;;;;;5.57;1.60;;;;;;;;;;5032680;28;20041;-51
2021/10/23 07:14:25;;;;;;;10.63;2.58;;;;;;;;;;5031869;28;20044;-45
2021/10/23 07:16:50;;;;;;;9.00;3.17;;;;;;;;;;5037084;28;20617;-47
2021/10/23 07:19:16;;;;;;;10.60;1.88;;;;;;;;;;5038154;28;20029;-50
2021/10/23 07:21:41;;;;;;;17.80;14.88;;;;;;;;;;5035202;28;20475;-49
2021/10/23 07:24:06;;;;;;;26.27;21.25;;;;;;;;;;5032417;28;20052;-46
2021/10/23 07:26:32;;;;;;;23.17;14.43;;;;;;;;;;5036753;28;20026;-49
2021/10/23 07:28:58;;;;;;;12.10;6.07;;;;;;;;;;5036850;28;20048;-50
2021/10/23 07:31:23;;;;;;;5.95;3.03;;;;;;;;;;5036999;28;20891;-49
2021/10/23 07:33:48;;;;;;;5.60;2.28;;;;;;;;;;5037834;28;20474;-49
2021/10/23 07:36:17;;;;;;;8.05;2.35;;;;;;;;;;5034338;28;20541;-48
2021/10/23 07:38:42;;;;;;;6.97;1.77;;;;;;;;;;5036577;28;20022;-47
2021/10/23 07:41:07;;;;;;;5.53;1.95;;;;;;;;;;5035077;28;20175;-49
2021/10/23 07:43:33;;;;;;;10.30;2.53;;;;;;;;;;5038368;28;20095;-47
2021/10/23 07:45:58;;;;;;;13.07;4.47;;;;;;;;;;5036161;28;20140;-45
2021/10/23 07:48:23;;;;;;;8.93;2.53;;;;;;;;;;5035934;28;20437;-45
2021/10/23 07:50:49;;;;;;;12.90;4.60;;;;;;;;;;5042803;28;20112;-45
2021/10/23 07:53:15;;;;;;;4.55;1.98;;;;;;;;;;5035036;28;20096;-47
2021/10/23 07:55:40;;;;;;;9.63;4.90;;;;;;;;;;5036226;28;20056;-46
2021/10/23 07:58:06;;;;;;;19.23;5.03;;;;;;;;;;5036679;28;20056;-44
2021/10/23 08:00:31;;;;;;;11.25;6.78;;;;;;;;;;5035772;28;20111;-47
2021/10/23 08:02:57;;;;;;;24.13;8.50;;;;;;;;;;5039062;28;20060;-45
2021/10/23 08:05:23;;;;;;;54.65;29.83;;;;;;;;;;5037545;28;20108;-44
2021/10/23 08:07:50;;;;;;;11.55;5.72;;;;;;;;;;5036981;28;20396;-47
2021/10/23 08:10:16;;;;;;;32.90;5.88;;;;;;;;;;5039026;28;20139;-47
2021/10/23 08:12:42;;;;;;;66.20;36.58;;;;;;;;;;5042610;28;20105;-49
2021/10/23 08:15:09;;;;;;;99.43;52.58;;;;;;;;;;5037270;28;20130;-50
2021/10/23 08:17:34;;;;;;;37.42;19.27;;;;;;;;;;5035546;28;20033;-47
2021/10/23 08:20:00;;;;;;;35.55;17.30;;;;;;;;;;5035473;28;20031;-45
2021/10/23 08:22:25;;;;;;;32.58;15.13;;;;;;;;;;5037850;28;20025;-51
2021/10/23 08:24:50;;;;;;;11.25;6.00;;;;;;;;;;5035874;28;20520;-48
2021/10/23 08:27:15;;;;;;;7.35;3.63;;;;;;;;;;5037261;28;20492;-45
2021/10/23 08:29:42;;;;;;;6.07;2.78;;;;;;;;;;5035904;28;20022;-50
2021/10/23 08:32:07;;;;;;;28.92;13.30;;;;;;;;;;5032321;28;20605;-52
2021/10/23 08:34:32;;;;;;;18.67;6.70;;;;;;;;;;5032286;28;20032;-47
2021/10/23 08:36:58;;;;;;;8.40;4.10;;;;;;;;;;5034633;28;20719;-46
2021/10/23 08:39:23;;;;;;;5.63;2.08;;;;;;;;;;5034524;28;20087;-47
2021/10/23 08:41:49;;;;;;;4.57;2.15;;;;;;;;;;5033308;28;20026;-49
2021/10/23 08:44:17;;;;;;;3.80;1.50;;;;;;;;;;5032342;28;20045;-47
2021/10/23 08:46:44;;;;;;;4.97;1.92;;;;;;;;;;5034626;28;20029;-48
2021/10/23 08:49:09;;;;;;;7.93;2.85;;;;;;;;;;5032194;28;20113;-51
2021/10/23 08:51:35;;;;;;;14.32;2.25;;;;;;;;;;5033169;28;20116;-49
2021/10/23 08:54:01;;;;;;;9.15;2.35;;;;;;;;;;5036068;28;20591;-48
2021/10/23 08:56:26;;;;;;;16.17;2.78;;;;;;;;;;5034880;28;20051;-50
2021/10/23 08:58:51;;;;;;;4.30;1.42;;;;;;;;;;5032749;28;20029;-46
2021/10/23 09:01:17;;;;;;;11.48;2.42;;;;;;;;;;5039035;28;20112;-49
2021/10/23 09:03:44;;;;;;;7.82;1.27;;;;;;;;;;5035263;28;20025;-44
2021/10/23 09:06:29;;;;;;;4.47;2.08;;;;;;;;;;5034752;28;20036;-45
2021/10/23 09:09:07;;;;;;;9.38;2.08;;;;;;;;;;5035788;28;20028;-48
2021/10/23 09:11:35;;;;;;;2.78;1.17;;;;;;;;;;5033951;28;20128;-50
2021/10/23 09:14:20;;;;;;;7.55;1.55;;;;;;;;;;5033781;28;20392;-46
2021/10/23 09:16:46;;;;;;;3.88;2.35;;;;;;;;;;5032140;28;20021;-50
2021/10/23 09:19:11;;;;;;;20.05;3.65;;;;;;;;;;5032679;28;20036;-50
2021/10/23 09:21:38;;;;;;;4.60;2.72;;;;;;;;;;5038171;28;20510;-46
2021/10/23 09:24:19;;;;;;;5.90;4.18;;;;;;;;;;5033520;28;20032;-52
2021/10/23 09:26:45;;;;;;;11.15;5.70;;;;;;;;;;5034182;28;20485;-51
2021/10/23 09:29:14;;;;;;;10.73;4.22;;;;;;;;;;5038533;28;20028;-49
2021/10/23 09:31:40;;;;;;;17.73;5.72;;;;;;;;;;5035052;28;20036;-47
2021/10/23 09:34:08;;;;;;;8.68;2.40;;;;;;;;;;5036676;28;20033;-48
2021/10/23 09:36:39;;;;;;;6.10;2.25;;;;;;;;;;5038085;28;20238;-49
2021/10/23 09:39:08;;;;;;;7.18;2.28;;;;;;;;;;5035901;28;20024;-46
2021/10/23 09:41:33;;;;;;;6.50;2.55;;;;;;;;;;5035616;28;20032;-48
2021/10/23 09:44:16;;;;;;;11.55;4.35;;;;;;;;;;5037662;28;20114;-49
2021/10/23 09:46:54;;;;;;;13.43;3.08;;;;;;;;;;5037663;28;20035;-49
2021/10/23 09:49:21;;;;;;;13.60;3.35;;;;;;;;;;5033626;28;20110;-46
2021/10/23 09:51:46;;;;;;;9.48;3.70;;;;;;;;;;5036685;28;20021;-49
2021/10/23 09:54:15;;;;;;;5.43;2.17;;;;;;;;;;5030246;28;20027;-49
2021/10/23 09:56:48;;;;;;;15.77;3.83;;;;;;;;;;5031902;28;20036;-45
2021/10/23 09:59:24;;;;;;;7.85;3.13;;;;;;;;;;5034089;28;20037;-49
2021/10/23 10:01:50;;;;;;;14.43;2.30;;;;;;;;;;5033194;28;20163;-46
2021/10/23 10:04:16;;;;;;;7.50;4.20;;;;;;;;;;5035233;28;20063;-47
2021/10/23 10:06:42;;;;;;;15.18;2.17;;;;;;;;;;5031704;28;20091;-46
2021/10/23 10:09:10;;;;;;;4.20;1.52;;;;;;;;;;5033993;28;20028;-45
2021/10/23 10:11:36;;;;;;;6.38;2.60;;;;;;;;;;5034602;28;20028;-46
2021/10/23 10:14:04;;;;;;;13.40;4.03;;;;;;;;;;5034934;28;20396;-50
2021/10/23 10:16:31;;;;;;;10.52;2.00;;;;;;;;;;5034216;28;20025;-48
2021/10/23 10:18:56;;;;;;;12.18;4.13;;;;;;;;;;5032289;28;20025;-45
2021/10/23 10:21:22;;;;;;;7.40;1.50;;;;;;;;;;5033519;28;20028;-45
2021/10/23 10:23:47;;;;;;;5.25;1.35;;;;;;;;;;5031023;28;20029;-47
2021/10/23 10:26:25;;;;;;;7.05;2.33;;;;;;;;;;5033015;28;20029;-45
2021/10/23 10:29:06;;;;;;;6.20;1.58;;;;;;;;;;5035028;28;20097;-45
2021/10/23 10:31:31;;;;;;;;;;;;;;;;;;5032833;28;20060;-47
2021/10/23 10:33:57;;;;;;;3.47;1.65;;;;;;;;;;5029595;28;19944;-44
2021/10/23 10:39:06;;;;;;;18.60;3.40;;;;;;;;;;5034393;28;20036;-46
2021/10/23 10:44:19;;;;;;;8.38;2.05;;;;;;;;;;5033046;28;20121;-50
2021/10/23 10:47:04;;;;;;;3.80;1.00;;;;;;;;;;5034009;28;20026;-44
2021/10/23 10:49:40;;;;;;;7.47;1.85;;;;;;;;;;5033296;28;20125;-45
2021/10/23 10:52:25;;;;;;;2.70;1.63;;;;;;;;;;5031798;28;20487;-45
2021/10/23 10:55:11;;;;;;;9.93;2.08;;;;;;;;;;5034393;28;20071;-44
2021/10/23 10:57:55;;;;;;;19.23;1.25;;;;;;;;;;5021449;28;20033;-47
2021/10/23 11:00:20;;;;;;;1.42;0.93;;;;;;;;;;5033461;28;20052;-45
2021/10/23 11:02:45;;;;;;;9.27;1.27;;;;;;;;;;5032857;28;20101;-48
2021/10/23 11:05:20;;;;;;;2.33;1.05;;;;;;;;;;5038392;28;20021;-46
2021/10/23 11:08:12;;;;;;;1.77;0.93;;;;;;;;;;5035366;28;20021;-49
2021/10/23 11:10:37;;;;;;;;;;;;;;;;;;5030937;28;20079;-45
2021/10/23 11:13:29;;;;;;;14.32;1.30;;;;;;;;;;5030965;28;19912;-46
2021/10/23 11:15:54;;;;;;;5.80;2.90;;;;;;;;;;5029503;28;20520;-48
2021/10/23 11:18:20;;;;;;;3.67;1.38;;;;;;;;;;5032765;28;20037;-47
2021/10/23 11:20:45;;;;;;;3.55;1.20;;;;;;;;;;5033571;28;20024;-49
2021/10/23 11:23:21;;;;;;;3.95;1.27;;;;;;;;;;5035036;28;20025;-51
2021/10/23 11:25:47;;;;;;;3.00;1.73;;;;;;;;;;5027794;28;20429;-50
2021/10/23 11:28:12;;;;;;;5.20;2.25;;;;;;;;;;5027944;28;20037;-51
2021/10/23 11:30:42;;;;;;;8.27;1.88;;;;;;;;;;5033599;28;20469;-51
2021/10/23 11:33:10;;;;;;;9.20;1.35;;;;;;;;;;5035718;28;20033;-51
2021/10/23 11:35:44;;;;;;;8.65;3.20;;;;;;;;;;5032587;28;20024;-52
2021/10/23 11:38:13;;;;;;;3.60;1.15;;;;;;;;;;5032652;28;20102;-48
2021/10/23 11:40:40;;;;;;;3.38;1.45;;;;;;;;;;5031518;28;20095;-48
2021/10/23 11:43:05;;;;;;;2.63;1.02;;;;;;;;;;5031355;28;20025;-51
2021/10/23 11:45:34;;;;;;;1.42;0.50;;;;;;;;;;5033751;28;20512;-48
2021/10/23 11:48:00;;;;;;;1.38;0.82;;;;;;;;;;5035619;28;20660;-47
2021/10/23 11:50:37;;;;;;;5.82;1.40;;;;;;;;;;5034417;28;20064;-51
2021/10/23 11:53:03;;;;;;;5.03;1.52;;;;;;;;;;5032521;28;20056;-48
2021/10/23 11:55:36;;;;;;;9.68;1.73;;;;;;;;;;5034656;28;20480;-45
2021/10/23 11:58:03;;;;;;;7.22;1.75;;;;;;;;;;5034174;28;20080;-44
2021/10/23 12:00:29;;;;;;;8.02;1.77;;;;;;;;;;5033605;28;20040;-48
2021/10/23 12:02:57;;;;;;;3.10;1.05;;;;;;;;;;5031523;28;20049;-45
2021/10/23 12:05:24;;;;;;;2.15;1.23;;;;;;;;;;5030814;28;20025;-46
2021/10/23 12:08:06;;;;;;;5.38;1.75;;;;;;;;;;5030898;28;20029;-45
2021/10/23 12:10:32;;;;;;;5.85;1.75;;;;;;;;;;5032627;28;20034;-44
2021/10/23 12:13:09;;;;;;;1.15;0.55;;;;;;;;;;5030065;28;20030;-44
2021/10/23 12:15:35;;;;;;;1.63;0.77;;;;;;;;;;5030911;28;20021;-47
2021/10/23 12:18:04;;;;;;;3.13;0.65;;;;;;;;;;5032772;28;20056;-48
2021/10/23 12:20:34;;;;;;;5.18;0.63;;;;;;;;;;5029635;28;20056;-46
2021/10/23 12:22:59;;;;;;;0.60;0.32;;;;;;;;;;5040677;28;20024;-46
2021/10/23 12:25:27;;;;;;;2.45;1.02;;;;;;;;;;5036644;28;20025;-44
2021/10/23 12:28:00;;;;;;;4.50;1.67;;;;;;;;;;5037389;28;20032;-43
2021/10/23 12:30:25;;;;;;;3.22;0.77;;;;;;;;;;5036615;28;20272;-44
2021/10/23 12:32:51;;;;;;;2.75;1.05;;;;;;;;;;5037051;28;20022;-45
2021/10/23 12:35:16;;;;;;;4.63;1.20;;;;;;;;;;5033644;28;20025;-44
2021/10/23 12:37:43;;;;;;;12.80;3.10;;;;;;;;;;5033255;28;20028;-45
2021/10/23 12:40:22;;;;;;;8.40;2.08;;;;;;;;;;5035832;28;20045;-46
2021/10/23 12:42:53;;;;;;;3.00;1.45;;;;;;;;;;5038475;28;20017;-47
2021/10/23 12:45:18;;;;;;;;;;;;;;;;;;5039206;28;20057;-46
2021/10/23 12:47:43;;;;;;;3.80;0.63;;;;;;;;;;5032978;28;20432;-46
2021/10/23 12:50:09;;;;;;;8.80;2.33;;;;;;;;;;5033974;28;20028;-44
2021/10/23 12:52:36;;;;;;;3.33;1.02;;;;;;;;;;5036776;28;20044;-44
2021/10/23 12:55:02;;;;;;;7.53;0.98;;;;;;;;;;5034190;28;20029;-45
2021/10/23 12:57:29;;;;;;;0.73;0.25;;;;;;;;;;5039011;28;20104;-45
2021/10/23 12:59:55;;;;;;;1.65;0.73;;;;;;;;;;5034568;28;20037;-45
2021/10/23 13:02:20;;;;;;;1.90;0.95;;;;;;;;;;5033871;28;20486;-49
2021/10/23 13:04:45;;;;;;;2.70;1.13;;;;;;;;;;5034341;28;20024;-47
2021/10/23 13:07:10;;;;;;;4.70;1.15;;;;;;;;;;5033024;28;20079;-47
2021/10/23 13:09:36;;;;;;;2.47;1.45;;;;;;;;;;5035605;28;20413;-48
2021/10/23 13:12:01;;;;;;;11.02;2.03;;;;;;;;;;5035715;28;20113;-50
2021/10/23 13:14:26;;;;;;;6.40;1.52;;;;;;;;;;5033150;28;20021;-45
2021/10/23 13:16:52;;;;;;;4.68;1.40;;;;;;;;;;5033283;28;20036;-48
2021/10/23 13:19:17;;;;;;;11.35;2.03;;;;;;;;;;5033465;28;20150;-45
2021/10/23 13:21:42;;;;;;;5.05;2.25;;;;;;;;;;5036543;28;20032;-50
2021/10/23 13:24:08;;;;;;;6.88;1.40;;;;;;;;;;5035998;28;20021;-45
2021/10/23 13:26:33;;;;;;;3.53;0.73;;;;;;;;;;5033817;28;20386;-50
2021/10/23 13:28:58;;;;;;;11.27;1.90;;;;;;;;;;5031990;28;20596;-45
2021/10/23 13:31:24;;;;;;;2.72;1.92;;;;;;;;;;5033928;28;20614;-46
2021/10/23 13:33:49;;;;;;;1.52;1.05;;;;;;;;;;5037411;28;20026;-46
2021/10/23 13:36:15;;;;;;;5.38;2.58;;;;;;;;;;5033518;28;20024;-47
2021/10/23 13:38:40;;;;;;;4.90;1.13;;;;;;;;;;5031536;28;20118;-45
2021/10/23 13:41:05;;;;;;;12.43;3.80;;;;;;;;;;5036487;28;20705;-48
2021/10/23 13:43:32;;;;;;;5.13;1.55;;;;;;;;;;5033770;28;20532;-47
2021/10/23 13:45:57;;;;;;;4.05;2.63;;;;;;;;;;5035850;28;20099;-46
2021/10/23 13:48:22;;;;;;;14.88;1.23;;;;;;;;;;5032508;28;20029;-46
2021/10/23 13:50:48;;;;;;;3.65;0.77;;;;;;;;;;5032573;28;20366;-46
2021/10/23 13:53:13;;;;;;;3.40;1.00;;;;;;;;;;5032209;28;20105;-46
2021/10/23 13:55:40;;;;;;;5.28;1.17;;;;;;;;;;5032964;28;20028;-49
2021/10/23 13:58:07;;;;;;;0.80;0.45;;;;;;;;;;5033946;28;20337;-50
2021/10/23 14:00:32;;;;;;;0.68;0.50;;;;;;;;;;5036631;28;20462;-50
2021/10/23 14:02:58;;;;;;;4.90;1.05;;;;;;;;;;5032854;28;20056;-51
2021/10/23 14:05:23;;;;;;;4.95;1.85;;;;;;;;;;5030513;28;20582;-46
2021/10/23 14:07:48;;;;;;;12.60;2.17;;;;;;;;;;5030504;28;20189;-51
2021/10/23 14:10:14;;;;;;;2.63;0.93;;;;;;;;;;5031104;28;20026;-47
2021/10/23 14:12:40;;;;;;;3.78;1.45;;;;;;;;;;5032942;28;20022;-49
2021/10/23 14:15:07;;;;;;;11.68;1.20;;;;;;;;;;5032173;28;20025;-46
2021/10/23 14:17:32;;;;;;;12.30;2.22;;;;;;;;;;5036845;28;20052;-48
2021/10/23 14:19:59;;;;;;;0.57;0.28;;;;;;;;;;5031489;28;20148;-46
2021/10/23 14:22:24;;;;;;;0.68;0.32;;;;;;;;;;5033427;28;20496;-44
2021/10/23 14:24:52;;;;;;;3.33;2.78;;;;;;;;;;5032178;28;20017;-45
2021/10/23 14:27:27;;;;;;;2.10;1.17;;;;;;;;;;5031862;28;20084;-47
2021/10/23 14:29:52;;;;;;;2.35;1.08;;;;;;;;;;5030185;28;20055;-47
2021/10/23 14:32:18;;;;;;;2.28;0.85;;;;;;;;;;5033449;28;20542;-45
2021/10/23 14:34:43;;;;;;;1.48;0.68;;;;;;;;;;5033647;28;20349;-49
2021/10/23 14:37:09;;;;;;;2.80;1.38;;;;;;;;;;5034044;28;20694;-46
2021/10/23 14:39:34;;;;;;;1.13;1.00;;;;;;;;;;5034431;28;20586;-47
2021/10/23 14:41:59;;;;;;;10.15;2.03;;;;;;;;;;5034026;28;20087;-43
2021/10/23 14:44:25;;;;;;;3.40;2.33;;;;;;;;;;5030331;28;20028;-47